BWD weather

Brownwood Regional Airport
Brownwood, Texas, United States

Public forecast

Using degrees Fahrenheit for public forecast. Weather courtesy of forecast.io.

METAR (pilot weather report)

Retrieved 2019/09/17 09:35 UTC (0 seconds ago):

KBWD 170935Z AUTO 00000KT 10SM CLR 21/17 A3000 RMK AO1

TAF (pilot weather forecast)

Closest forecast is Curtis Field, 41.4 nm (76.7 km) SSW. Retrieved 2019/09/17 06:30 UTC (3 hours ago):

TAF KBBD 170529Z 1706/1806 VRB03KT P6SM SKC FM171800 07007KT P6SM FEW080 FM180200 09003KT P6SM SKC